Flight Track Log - Related Links

Times and Time Zones

All times are in EDT time to prevent confusion due to time zone crossing. See the SWA1537 flight status page for this flight to view local times or setup timezone preferences in your user account.

Time Position Orientation Groundspeed Altitude Reporting Facility
EDT Latitude Longitude Course Direction KTS MPH feet Rate Location/Type
04:32PM 42.7483 -73.8197 265° West 157 181 1,800  Level Boston Center
04:32PM 42.7456 -73.8619 265° West 146 168 3,900 3,028 Climbing Boston Center
04:33PM 42.7414 -73.9303 265° West 180 207 7,200 2,736 Climbing Boston Center
04:34PM 42.7300 -74.0219 260° West 245 282 9,600 2,951 Climbing Boston Center
04:35PM 42.6672 -74.0861 217° Southwest 284 327 13,200 3,917 Climbing Boston Center
04:36PM 42.5878 -74.1517 211° Southwest 310 357 17,500 4,017 Climbing Boston Center
04:37PM 42.5036 -74.1833 196° South 338 389 21,300 3,290 Climbing Boston Center
04:38PM 42.4075 -74.1225 155° Southeast 378 435 24,300 2,274 Climbing Boston Center
04:39PM 42.3131 -74.0433 148° Southeast 396 456 26,000 843 Climbing Boston Center
04:40PM 42.2208 -73.9672 149° Southeast 396 456 26,000  Level Boston Center
04:41PM 42.1286 -73.8933 149° Southeast 393 452 26,000  Level Boston Center
04:42PM 42.0361 -73.8422 158° South 368 423 26,000  Level Boston Center
04:43PM 41.9556 -73.8775 198° South 310 357 26,000  Level Boston Center
04:45PM 41.8167 -73.9411 199° South 317 365 26,000  Level New York Center
04:46PM 41.7367 -73.9761 198° South 317 365 26,000  Level New York Center
04:47PM 41.6986 -73.9939 199° South 311 358 26,000  Level Boston Center
04:48PM 41.6150 -74.0311 198° South 313 360 26,000  Level Boston Center
04:49PM 41.5342 -74.0686 199° South 312 359 26,000  Level Boston Center
04:51PM 41.3533 -74.1497 199° South 312 359 26,000  Level Boston Center
04:52PM 41.2697 -74.1872 199° South 314 361 26,000  Level Boston Center
04:53PM 41.1864 -74.2236 198° South 314 361 26,000  Level Boston Center
04:54PM 41.1042 -74.2611 199° South 314 361 26,000  Level Boston Center
04:55PM 41.0222 -74.2967 198° South 314 361 26,000  Level Boston Center
04:56PM 40.9406 -74.3333 199° South 314 361 26,000  Level Boston Center
04:57PM 40.8189 -74.3850 198° South 312 359 26,000  Level New York Center
04:58PM 40.7564 -74.4531 220° Southwest 298 343 26,000  Level New York Center
04:59PM 40.7056 -74.5433 233° Southwest 298 343 26,000  Level New York Center
05:01PM 40.6103 -74.6950 230° Southwest 306 352 26,000  Level Boston Center
05:02PM 40.5558 -74.7817 230° Southwest 306 352 26,000  Level Boston Center
05:03PM 40.4972 -74.8631 227° Southwest 306 352 26,000  Level Boston Center
05:04PM 40.4394 -74.9450 227° Southwest 306 352 26,000  Level Boston Center
05:05PM 40.3831 -75.0253 227° Southwest 306 352 26,000  Level Boston Center
05:06PM 40.3103 -75.1286 227° Southwest 307 353 26,000 -469 Level New York Center
05:07PM 40.2531 -75.2094 227° Southwest 307 353 25,000 -1,850 Descending New York Center
05:08PM 40.2003 -75.2847 227° Southwest 307 353 22,300 -2,750 Descending New York Center
05:09PM 40.1472 -75.3600 227° Southwest 301 346 19,500 -1,094 Descending New York Center
05:11PM 40.0612 -75.4633 223° Southwest  Level FlightAware Approximate
05:11PM 40.0264 -75.5175 223° Southwest 319 367 19,000  Level New York Center
05:12PM 39.9600 -75.6106 227° Southwest 319 367 19,000  Level New York Center
05:13PM 39.9089 -75.6908 230° Southwest 324 373 19,000 -595 Level New York Center
05:14PM 39.8522 -75.7950 235° Southwest 324 373 17,800 -1,650 Descending New York Center
05:16PM 39.7667 -75.9500 234° Southwest 305 351 14,600 -1,922 Descending Potomac TRACON
05:17PM 39.7333 -76.0333 243° Southwest 309 356 12,900 -1,100 Descending Potomac TRACON
05:19PM 39.6333 -76.2167 235° Southwest 256 295 11,300 -961 Descending Potomac TRACON
05:20PM 39.6000 -76.2833 237° Southwest 257 296 10,000 -1,565 Descending Potomac TRACON
05:21PM 39.5833 -76.3667 255° West 262 302 8,300 -1,700 Descending Potomac TRACON
05:22PM 39.5500 -76.4500 243° Southwest 277 319 6,600 -1,450 Descending Potomac TRACON
05:23PM 39.4833 -76.4833 201° Southwest 275 316 5,400 -1,100 Descending Potomac TRACON
05:24PM 39.4167 -76.5333 210° Southwest 269 310 4,400 -730 Descending Potomac TRACON
05:25PM 39.3500 -76.5000 159° South 265 305 4,000 -198 Descending Potomac TRACON
05:26PM 39.3000 -76.4500 142° Southeast 243 280 4,000  Level Potomac TRACON
05:27PM 39.2500 -76.4000 142° Southeast 245 282 4,000 -263 Level Potomac TRACON
05:28PM 39.2000 -76.3500 142° Southeast 210 242 3,500 -500 Descending Potomac TRACON
05:29PM 39.1667 -76.3667 201° Southwest 179 206 3,000 -383 Descending Potomac TRACON
05:31PM 39.1720 -76.5493 272° West  Level Estimated
05:31PM 39.1667 -76.5333 272° West 157 181 2,000  Level Potomac TRACON
05:32PM 39.1667 -76.5833 270° West 144 166 1,300 -789 Descending Potomac TRACON
05:33PM 39.1667 -76.6333 270° West 122 140 500 -800 Descending Potomac TRACON
05:35PM 39.1667 -76.6667 270° West  Level FlightAware Approximate
05:42PM 39.1754 -76.6683 270° West  Level Estimated
05:43PM 39.1754 -76.6683 270° West  Level Estimated

Login

Don't have an account? Register now (free) for customized features, flight alerts, and more!